createdAt,value
2023-01-09T04:45:16.312Z,720.92
2023-01-09T04:47:43.343Z,711.55
2023-01-09T04:50:11.574Z,716.42
2023-01-09T04:52:44.506Z,716.53
2023-01-09T04:55:11.201Z,710.63
2023-01-09T04:57:38.014Z,711.13
2023-01-09T05:00:09.638Z,698.60
2023-01-09T05:02:36.965Z,704.78
2023-01-09T05:05:04.602Z,715.45
2023-01-09T05:07:31.271Z,711.88
2023-01-09T05:09:57.999Z,707.00
2023-01-09T05:12:24.791Z,705.15
2023-01-09T05:14:51.426Z,700.10
2023-01-09T05:17:18.020Z,704.03
2023-01-09T05:19:45.460Z,700.75
2023-01-09T05:22:12.981Z,715.92
2023-01-09T05:24:39.637Z,706.17
2023-01-09T05:27:06.363Z,708.20
2023-01-09T05:29:33.020Z,701.80
2023-01-09T05:31:59.628Z,709.23
2023-01-09T05:34:26.557Z,702.70
2023-01-09T05:36:53.228Z,703.63
2023-01-09T05:39:20.081Z,695.25
2023-01-09T05:41:46.810Z,692.35
2023-01-09T05:44:13.491Z,703.08
2023-01-09T05:46:40.122Z,698.58
2023-01-09T05:49:06.800Z,691.00
2023-01-09T05:51:33.553Z,681.17
2023-01-09T05:54:00.376Z,696.90
2023-01-09T05:56:27.129Z,691.15
2023-01-09T05:58:53.724Z,689.10
2023-01-09T06:01:22.822Z,665.45
2023-01-09T06:03:50.394Z,664.15
2023-01-09T06:06:17.047Z,657.40
2023-01-09T06:08:43.722Z,657.88
2023-01-09T06:11:10.407Z,655.92
2023-01-09T06:13:37.054Z,653.40
2023-01-09T06:16:03.951Z,657.88
2023-01-09T06:18:30.608Z,652.35
2023-01-09T06:20:57.252Z,655.00
2023-01-09T06:23:23.877Z,654.67
2023-01-09T06:25:50.512Z,646.63
2023-01-09T06:28:17.167Z,658.70
2023-01-09T06:30:43.794Z,650.63
2023-01-09T06:33:10.401Z,678.60
2023-01-09T06:35:36.966Z,655.80
2023-01-09T06:38:03.675Z,653.38
2023-01-09T06:40:30.329Z,673.67
2023-01-09T06:42:57.014Z,671.35
2023-01-09T06:45:23.605Z,668.20
2023-01-09T06:47:50.248Z,662.95
2023-01-09T06:50:17.164Z,647.47
2023-01-09T06:52:43.799Z,654.45
2023-01-09T06:55:10.534Z,650.85
2023-01-09T06:57:37.167Z,652.38
2023-01-09T07:00:04.633Z,642.53
2023-01-09T07:02:31.294Z,652.40
2023-01-09T07:04:57.894Z,651.40
2023-01-09T07:07:24.551Z,660.97
2023-01-09T07:09:51.328Z,689.97
2023-01-09T07:12:18.012Z,668.70
2023-01-09T07:14:44.826Z,664.23
2023-01-09T07:17:14.275Z,667.88
2023-01-09T07:19:41.238Z,655.28
2023-01-09T07:22:08.451Z,656.65
2023-01-09T07:24:35.274Z,654.80
2023-01-09T07:27:02.635Z,662.43
2023-01-09T07:29:29.735Z,672.40
2023-01-09T07:31:56.556Z,670.58
2023-01-09T07:34:23.555Z,676.60
2023-01-09T07:36:51.109Z,657.88
2023-01-09T07:39:17.859Z,646.92
2023-01-09T07:41:45.113Z,645.42
2023-01-09T07:44:11.926Z,652.00
2023-01-09T07:46:39.003Z,643.65
2023-01-09T07:49:05.723Z,643.65
2023-01-09T07:51:32.417Z,646.05
2023-01-09T07:53:59.156Z,650.25
2023-01-09T07:56:25.793Z,643.58
2023-01-09T07:58:52.410Z,659.83
2023-01-09T08:01:19.122Z,660.47
2023-01-09T08:03:45.838Z,649.87
2023-01-09T08:06:12.480Z,643.50
2023-01-09T08:08:39.142Z,648.97
2023-01-09T08:11:05.845Z,662.75
2023-01-09T08:13:32.490Z,666.58
2023-01-09T08:15:59.210Z,673.60
2023-01-09T08:18:25.888Z,674.42
2023-01-09T08:20:52.522Z,685.10
2023-01-09T08:23:19.163Z,687.92
2023-01-09T08:25:45.806Z,684.38
2023-01-09T08:28:12.652Z,691.80
2023-01-09T08:30:39.425Z,694.00
2023-01-09T08:33:06.198Z,699.50
2023-01-09T08:35:32.905Z,702.90
2023-01-09T08:37:59.487Z,707.58
2023-01-09T08:40:26.141Z,701.60
2023-01-09T08:43:11.252Z,695.33
2023-01-09T08:45:56.597Z,694.38
2023-01-09T08:48:23.438Z,691.55
2023-01-09T08:50:50.280Z,697.67
2023-01-09T08:53:16.914Z,699.17
2023-01-09T08:55:43.787Z,710.67
2023-01-09T08:58:10.681Z,698.05
2023-01-09T09:00:37.330Z,708.92
2023-01-09T09:03:04.306Z,713.88
2023-01-09T09:05:32.527Z,708.65
2023-01-09T09:07:59.472Z,712.35
2023-01-09T09:10:28.271Z,725.78
2023-01-09T09:12:57.734Z,722.03
2023-01-09T09:15:26.279Z,723.85
2023-01-09T09:18:02.044Z,722.67
2023-01-09T09:20:33.963Z,728.63
2023-01-09T09:23:00.806Z,724.93
2023-01-09T09:25:27.879Z,712.58
2023-01-09T09:27:56.357Z,720.13
2023-01-09T09:30:24.319Z,720.70
2023-01-09T09:32:51.169Z,717.70
2023-01-09T09:35:18.169Z,721.15
2023-01-09T09:37:54.258Z,714.40
2023-01-09T09:40:31.570Z,730.38
2023-01-09T09:43:47.300Z,725.08
2023-01-09T09:46:38.804Z,733.10
2023-01-09T09:49:18.921Z,755.08
2023-01-09T09:51:50.297Z,744.88
2023-01-09T09:54:43.592Z,765.85
2023-01-09T09:57:17.723Z,758.58
2023-01-09T09:59:46.142Z,765.90
2023-01-09T10:02:24.190Z,767.80
2023-01-09T10:05:15.626Z,762.65
2023-01-09T10:07:48.284Z,767.38
2023-01-09T10:10:20.093Z,780.00
2023-01-09T10:12:59.150Z,773.10
2023-01-09T10:15:35.503Z,771.35
2023-01-09T10:18:10.502Z,774.75
2023-01-09T10:20:53.031Z,779.20
2023-01-09T10:23:28.862Z,776.43
2023-01-09T10:26:05.282Z,776.70
2023-01-09T10:28:50.578Z,780.17
2023-01-09T10:31:47.988Z,777.57
2023-01-09T10:34:46.805Z,780.07
2023-01-09T10:37:25.299Z,778.10
2023-01-09T10:40:04.742Z,770.58
2023-01-09T10:42:37.402Z,789.97
2023-01-09T10:45:17.812Z,781.85
2023-01-09T10:47:45.586Z,779.25
2023-01-09T10:50:22.968Z,782.05
2023-01-09T10:52:52.363Z,779.08
2023-01-09T10:55:23.103Z,790.88
2023-01-09T10:57:54.627Z,786.42
2023-01-09T11:00:24.037Z,796.13
2023-01-09T11:02:52.356Z,791.70
2023-01-09T11:05:26.117Z,800.37
2023-01-09T11:08:00.923Z,820.08
2023-01-09T11:10:48.025Z,811.72
2023-01-09T11:13:25.128Z,825.08
2023-01-09T11:16:10.521Z,835.85
2023-01-09T11:18:49.421Z,825.80
2023-01-09T11:21:28.128Z,828.45
2023-01-09T11:23:55.729Z,835.88
2023-01-09T11:26:28.022Z,836.45
2023-01-09T11:29:14.813Z,845.88
2023-01-09T11:31:43.666Z,859.40
2023-01-09T11:34:22.599Z,897.47
2023-01-09T11:36:50.765Z,922.65
2023-01-09T11:39:29.108Z,924.95
2023-01-09T11:41:58.569Z,927.47
2023-01-09T11:44:26.724Z,940.83
2023-01-09T11:46:53.761Z,936.22
2023-01-09T11:49:26.309Z,933.38
2023-01-09T11:52:22.448Z,909.67
2023-01-09T11:55:04.517Z,877.88
2023-01-09T11:57:32.222Z,866.40
2023-01-09T12:00:03.952Z,856.95
2023-01-09T12:03:02.553Z,843.88
2023-01-09T12:05:51.426Z,849.83
2023-01-09T12:08:44.069Z,832.95
2023-01-09T12:11:32.364Z,820.00
2023-01-09T12:14:25.158Z,795.00
2023-01-09T12:17:10.262Z,787.13
2023-01-09T12:20:07.056Z,777.80
2023-01-09T12:22:53.096Z,755.42
2023-01-09T12:26:04.795Z,753.30
2023-01-09T12:28:55.821Z,751.35
2023-01-09T12:32:07.014Z,743.60
2023-01-09T12:34:42.773Z,739.60
2023-01-09T12:37:34.131Z,722.20
2023-01-09T12:40:32.072Z,728.00
2023-01-09T12:43:10.845Z,726.53
2023-01-09T12:46:13.537Z,725.90
2023-01-09T12:49:29.708Z,722.75
2023-01-09T12:52:17.424Z,728.83
2023-01-09T12:55:00.478Z,721.53
2023-01-09T12:57:38.809Z,731.57
2023-01-09T13:00:20.633Z,729.30
2023-01-09T13:03:11.287Z,727.42
2023-01-09T13:05:49.633Z,729.63
2023-01-09T13:08:33.971Z,729.97
2023-01-09T13:11:19.813Z,715.38
2023-01-09T13:14:10.931Z,717.45
2023-01-09T13:16:43.398Z,712.72
2023-01-09T13:19:36.791Z,717.80
2023-01-09T13:22:05.235Z,717.55
2023-01-09T13:24:45.857Z,724.40
2023-01-09T13:27:20.050Z,734.55
2023-01-09T13:30:00.665Z,749.08
2023-01-09T13:33:05.713Z,749.20
2023-01-09T13:35:32.632Z,760.63
2023-01-09T13:37:59.493Z,757.33
2023-01-09T13:40:29.350Z,757.45
2023-01-09T13:43:01.418Z,746.67
2023-01-09T13:45:30.844Z,747.03
2023-01-09T13:48:14.465Z,747.60
2023-01-09T13:50:43.294Z,747.70
2023-01-09T13:53:27.674Z,751.53
2023-01-09T13:55:57.508Z,765.17
2023-01-09T13:58:28.698Z,761.88
2023-01-09T14:01:00.739Z,780.30
2023-01-09T14:03:36.287Z,772.75
2023-01-09T14:06:16.170Z,769.88
2023-01-09T14:08:44.553Z,769.67
2023-01-09T14:11:19.609Z,774.00
2023-01-09T14:13:51.787Z,772.03
2023-01-09T14:16:23.624Z,760.92
2023-01-09T14:19:16.461Z,764.28
2023-01-09T14:21:57.746Z,753.05
2023-01-09T14:24:46.565Z,756.75
2023-01-09T14:27:49.315Z,754.20
2023-01-09T14:30:27.409Z,752.03
2023-01-09T14:33:15.800Z,744.33
2023-01-09T14:35:54.517Z,740.80
2023-01-09T14:38:31.069Z,731.83
2023-01-09T14:41:19.225Z,730.10
2023-01-09T14:44:12.747Z,722.78
2023-01-09T14:46:40.278Z,732.58
2023-01-09T14:49:30.604Z,727.75
2023-01-09T14:51:59.493Z,719.42
2023-01-09T14:54:35.941Z,707.83
2023-01-09T14:57:02.733Z,703.38
2023-01-09T14:59:29.833Z,705.50
2023-01-09T15:01:59.206Z,702.05
2023-01-09T15:04:34.658Z,713.28
2023-01-09T15:07:03.141Z,714.20
2023-01-09T15:09:45.906Z,711.95
2023-01-09T15:12:20.839Z,720.28
2023-01-09T15:14:52.307Z,731.85
2023-01-09T15:17:27.234Z,724.85
2023-01-09T15:19:54.842Z,727.33
2023-01-09T15:22:33.645Z,715.35
2023-01-09T15:25:40.720Z,704.03
2023-01-09T15:28:32.103Z,696.53
2023-01-09T15:31:13.196Z,703.10
2023-01-09T15:33:41.467Z,698.47
2023-01-09T15:36:24.581Z,697.55
2023-01-09T15:38:52.555Z,688.95
2023-01-09T15:41:49.131Z,688.72
2023-01-09T15:44:23.976Z,693.63
2023-01-09T15:46:51.771Z,690.55
2023-01-09T15:49:20.158Z,692.35
2023-01-09T15:51:48.661Z,690.05
2023-01-09T15:54:20.825Z,685.53
2023-01-09T15:56:47.505Z,664.95
2023-01-09T15:59:27.324Z,652.65
2023-01-09T16:02:22.261Z,645.35
2023-01-09T16:04:50.904Z,650.25
2023-01-09T16:07:20.764Z,643.00
2023-01-09T16:09:48.893Z,644.35
2023-01-09T16:12:21.906Z,646.80
2023-01-09T16:14:52.493Z,637.97
2023-01-09T16:17:23.904Z,637.73
2023-01-09T16:19:58.952Z,637.90
2023-01-09T16:22:30.890Z,639.75
2023-01-09T16:25:20.156Z,645.25
2023-01-09T16:30:59.042Z,640.88
2023-01-09T16:33:28.747Z,635.45
2023-01-09T16:35:55.885Z,645.08
2023-01-09T16:38:28.627Z,643.03
2023-01-09T16:41:25.494Z,632.47
2023-01-09T16:43:52.525Z,643.35
2023-01-09T16:46:21.161Z,634.10
2023-01-09T16:48:48.024Z,634.85
2023-01-09T16:51:17.391Z,633.10
2023-01-09T16:53:44.605Z,644.80
2023-01-09T16:56:30.035Z,634.65
2023-01-09T16:58:57.048Z,626.03
2023-01-09T17:01:23.813Z,633.17
2023-01-09T17:03:52.337Z,629.95
2023-01-09T17:06:28.008Z,626.35
2023-01-09T17:08:54.747Z,630.88
2023-01-09T17:11:32.960Z,623.13
2023-01-09T17:14:00.596Z,630.65
2023-01-09T17:16:28.762Z,622.97
2023-01-09T17:18:55.727Z,621.90
2023-01-09T17:21:24.828Z,616.08
2023-01-09T17:24:10.196Z,632.95
2023-01-09T17:26:57.090Z,616.75
2023-01-09T17:29:23.999Z,627.45
2023-01-09T17:31:50.705Z,627.97
2023-01-09T17:34:17.485Z,624.20
2023-01-09T17:36:44.417Z,621.33
2023-01-09T17:39:15.933Z,620.05
2023-01-09T17:41:43.108Z,618.77
2023-01-09T17:44:11.191Z,618.40
2023-01-09T17:46:41.779Z,614.30
2023-01-09T17:49:15.938Z,625.13
2023-01-09T17:51:42.618Z,621.22
2023-01-09T17:54:09.277Z,618.22
2023-01-09T17:56:38.769Z,612.03
2023-01-09T17:59:07.909Z,617.35
2023-01-09T18:01:34.550Z,607.22
2023-01-09T18:04:01.153Z,602.58
2023-01-09T18:06:28.758Z,604.03
2023-01-09T18:08:58.011Z,610.25
2023-01-09T18:11:24.981Z,613.08
2023-01-09T18:13:56.182Z,618.78
2023-01-09T18:16:25.568Z,612.33
2023-01-09T18:18:53.920Z,611.53
2023-01-09T18:21:23.804Z,612.28
2023-01-09T18:23:50.395Z,604.75
2023-01-09T18:26:21.290Z,611.75
2023-01-09T18:28:50.284Z,603.47
2023-01-09T18:31:21.995Z,606.75
2023-01-09T18:33:52.255Z,605.65
2023-01-09T18:36:30.572Z,613.60
2023-01-09T18:38:59.357Z,608.80
2023-01-09T18:41:26.851Z,611.28
2023-01-09T18:43:55.983Z,599.78
2023-01-09T18:46:26.084Z,612.15
2023-01-09T18:48:54.682Z,611.37
2023-01-09T18:51:22.355Z,608.05
2023-01-09T18:53:49.730Z,614.15
2023-01-09T18:56:17.398Z,615.88
2023-01-09T18:58:44.050Z,617.28
2023-01-09T19:01:10.799Z,623.90
2023-01-09T19:03:37.543Z,621.10
2023-01-09T19:06:04.498Z,618.92
2023-01-09T19:08:35.972Z,627.85
2023-01-09T19:11:03.589Z,626.97
2023-01-09T19:13:35.526Z,625.50
2023-01-09T19:16:03.946Z,632.22
2023-01-09T19:18:33.998Z,630.75
2023-01-09T19:21:00.708Z,623.20
2023-01-09T19:23:27.940Z,623.65
2023-01-09T19:25:54.696Z,628.92
2023-01-09T19:28:21.937Z,622.03
2023-01-09T19:30:56.748Z,627.95
2023-01-09T19:33:25.213Z,622.95
2023-01-09T19:35:52.735Z,623.53
2023-01-09T19:38:22.362Z,625.20
2023-01-09T19:40:49.051Z,617.87
2023-01-09T19:43:25.584Z,629.60
2023-01-09T19:45:56.217Z,619.42
2023-01-09T19:48:24.020Z,622.42
2023-01-09T19:50:50.718Z,624.45
2023-01-09T19:53:17.433Z,629.33
2023-01-09T19:55:44.085Z,625.05
2023-01-09T19:58:11.008Z,613.97
2023-01-09T20:00:37.670Z,629.75
2023-01-09T20:03:04.414Z,625.78
2023-01-09T20:05:31.128Z,612.17
2023-01-09T20:07:57.898Z,621.65
2023-01-09T20:10:24.500Z,622.05
2023-01-09T20:12:51.445Z,620.72
2023-01-09T20:15:18.118Z,628.25
2023-01-09T20:17:44.827Z,625.30
2023-01-09T20:20:11.687Z,627.80
2023-01-09T20:22:38.274Z,630.28
2023-01-09T20:25:07.911Z,620.58
2023-01-09T20:27:34.529Z,622.15
2023-01-09T20:30:01.145Z,625.70
2023-01-09T20:32:29.869Z,611.70
2023-01-09T20:34:57.060Z,617.10
2023-01-09T20:37:23.727Z,630.53
2023-01-09T20:39:52.850Z,626.45
2023-01-09T20:42:19.561Z,624.78
2023-01-09T20:44:46.157Z,621.20
2023-01-09T20:47:12.836Z,630.92
2023-01-09T20:49:39.452Z,621.42
2023-01-09T20:52:06.054Z,629.45
2023-01-09T20:54:32.793Z,624.05
2023-01-09T20:56:59.381Z,621.25
2023-01-09T20:59:26.005Z,620.75
2023-01-09T21:01:52.885Z,627.85
2023-01-09T21:04:19.679Z,620.60
2023-01-09T21:06:48.239Z,626.08
2023-01-09T21:09:16.370Z,628.60
2023-01-09T21:11:43.013Z,642.72
2023-01-09T21:14:09.581Z,640.45
2023-01-09T21:16:36.232Z,665.67
2023-01-09T21:19:02.878Z,659.88
2023-01-09T21:21:29.498Z,665.33
2023-01-09T21:23:58.156Z,670.95
2023-01-09T21:26:28.778Z,678.60
2023-01-09T21:28:57.835Z,672.53
2023-01-09T21:31:34.022Z,667.60
2023-01-09T21:34:03.866Z,681.95
2023-01-09T21:36:30.803Z,680.83
2023-01-09T21:38:58.762Z,669.53
2023-01-09T21:41:44.223Z,677.83
2023-01-09T21:44:32.994Z,678.58
2023-01-09T21:47:01.208Z,673.65
2023-01-09T21:49:31.212Z,657.65
2023-01-09T21:51:58.348Z,656.40
2023-01-09T21:54:24.991Z,634.08
2023-01-09T21:56:52.468Z,634.55
2023-01-09T21:59:19.254Z,654.38
2023-01-09T22:01:47.753Z,660.03
2023-01-09T22:04:15.980Z,657.10
2023-01-09T22:06:43.207Z,660.30
2023-01-09T22:09:10.440Z,662.75
2023-01-09T22:11:38.709Z,659.42
2023-01-09T22:14:05.827Z,671.70
2023-01-09T22:16:33.037Z,671.13
2023-01-09T22:18:59.771Z,672.35
2023-01-09T22:21:26.433Z,667.42
2023-01-09T22:23:53.764Z,662.47
2023-01-09T22:26:21.201Z,670.88
2023-01-09T22:28:48.692Z,674.05
2023-01-09T22:31:20.489Z,643.78
2023-01-09T22:33:51.779Z,644.38
2023-01-09T22:36:18.999Z,658.75
2023-01-09T22:38:46.532Z,670.13
2023-01-09T22:41:13.591Z,677.15
2023-01-09T22:43:40.268Z,664.15
2023-01-09T22:46:11.059Z,663.17
2023-01-09T22:48:38.499Z,655.47
2023-01-09T22:51:08.336Z,662.70
2023-01-09T22:53:35.329Z,640.75
2023-01-09T22:56:05.244Z,646.47
2023-01-09T22:58:32.192Z,636.08
2023-01-09T23:00:59.259Z,662.23
2023-01-09T23:03:26.798Z,665.20
2023-01-09T23:06:11.834Z,654.97
2023-01-09T23:08:39.047Z,655.83
2023-01-09T23:11:08.819Z,668.17
2023-01-09T23:13:35.550Z,683.42
2023-01-09T23:16:02.214Z,657.55
2023-01-09T23:18:29.112Z,655.53
2023-01-09T23:20:58.432Z,656.65
2023-01-09T23:23:26.638Z,659.20
2023-01-09T23:25:55.759Z,648.60
2023-01-09T23:28:23.300Z,638.30
2023-01-09T23:30:49.987Z,639.03
2023-01-09T23:33:17.148Z,618.08
2023-01-09T23:35:44.431Z,611.95
2023-01-09T23:38:11.618Z,612.55
2023-01-09T23:40:39.709Z,617.05
2023-01-09T23:43:08.990Z,621.63
2023-01-09T23:45:40.024Z,622.08
2023-01-09T23:48:08.586Z,615.78
2023-01-09T23:50:35.573Z,614.03
2023-01-09T23:53:02.751Z,626.20
2023-01-09T23:55:29.665Z,627.90
2023-01-09T23:57:57.346Z,619.30
